Terminal Aerodrome Forecast
Issued by NWS Charleston, WV

Home | Current Version | Previous Version | Text Only | Print | Product List | Glossary On
Versions: 1 2 3 4 5 6 7 8 9 10 11 12 13 14 15 16 17 18 19 20 21 22 23 24 25 26 27 28 29 30 31 32 33 34 35 36 37 38 39 40 41 42 43 44 45 46 47 48
000
FTUS41 KRLX 200537
TAFHTS
TAF
KHTS 200537Z 2006/2106 VRB03KT 5SM SHRA BR BKN006 OVC015
     FM200800 21007KT P6SM BKN015
     FM201300 20009G15KT P6SM BKN025
     FM201600 20008G15KT P6SM BKN035
     FM202100 23007KT P6SM BKN025
     FM210100 23006KT P6SM BKN015=

USA.gov is the U.S. government's official web portal to all federal, state and local government web resources and services.